Time;durP1;ratioP1;P1;durP2;ratioP2;P2;SDS_P1;SDS_P2;PMS_P1;PMS_P2;Temp;Humidity;BMP_temperature;BMP_pressure;BME280_temperature;BME280_humidity;BME280_pressure;Samples;Min_cycle;Max_cycle;Signal;HPM_P1;HPM_P2
2023/08/23 00:01:52;;;;;;;2.65;1.65;;;20.40;92.60;20.50;100915.00;;;;4930698;28;93040;-63
2023/08/23 00:04:21;;;;;;;2.00;1.40;;;20.40;92.90;20.40;100917.00;;;;4934181;28;93665;-64
2023/08/23 00:06:47;;;;;;;2.72;1.90;;;20.30;93.40;20.30;100922.00;;;;4935745;28;93905;-64
2023/08/23 00:09:13;;;;;;;1.83;1.65;;;20.20;93.60;20.20;100915.00;;;;4931573;28;93085;-64
2023/08/23 00:11:39;;;;;;;3.10;1.67;;;20.10;93.90;20.10;100908.00;;;;4935144;28;97929;-64
2023/08/23 00:14:05;;;;;;;2.08;1.55;;;20.00;94.00;20.10;100911.00;;;;4936230;28;123001;-64
2023/08/23 00:16:30;;;;;;;2.38;1.83;;;20.00;94.20;20.00;100909.00;;;;4932754;28;122051;-65
2023/08/23 00:18:56;;;;;;;2.60;1.88;;;19.90;94.40;20.00;100902.00;;;;4931680;28;107943;-64
2023/08/23 00:21:22;;;;;;;1.67;1.58;;;19.90;94.60;19.90;100905.00;;;;4931360;28;108882;-64
2023/08/23 00:23:47;;;;;;;1.52;1.42;;;19.80;94.70;19.90;100903.00;;;;4931085;28;121725;-64
2023/08/23 00:26:13;;;;;;;2.75;1.58;;;19.80;94.90;19.90;100900.00;;;;4932169;28;119863;-65
2023/08/23 00:28:40;;;;;;;2.03;1.58;;;19.80;95.10;19.80;100900.00;;;;4931479;28;93059;-65
2023/08/23 00:31:06;;;;;;;2.38;1.88;;;19.70;95.30;19.80;100901.00;;;;4930408;28;94757;-63
2023/08/23 00:33:32;;;;;;;2.25;1.70;;;19.70;95.40;19.70;100903.00;;;;4932752;28;93652;-63
2023/08/23 00:35:58;;;;;;;4.72;1.45;;;19.60;95.60;19.70;100894.00;;;;4931884;28;123955;-63
2023/08/23 00:38:24;;;;;;;1.60;1.50;;;19.60;95.70;19.70;100902.00;;;;4935388;28;109635;-63
2023/08/23 00:40:49;;;;;;;1.33;1.23;;;19.60;95.90;19.60;100909.00;;;;4931515;28;108316;-64
2023/08/23 00:43:15;;;;;;;1.45;1.33;;;19.50;96.00;19.60;100899.00;;;;4928856;28;121280;-63
2023/08/23 00:45:42;;;;;;;1.58;1.48;;;19.50;96.10;19.60;100908.00;;;;4928781;28;121911;-64
2023/08/23 00:48:09;;;;;;;3.33;2.22;;;19.50;96.20;19.60;100901.00;;;;4930878;28;92103;-64
2023/08/23 00:50:36;;;;;;;2.72;1.67;;;19.50;96.40;19.60;100904.00;;;;4930460;28;93088;-64
2023/08/23 00:53:02;;;;;;;3.10;1.08;;;19.50;96.40;19.50;100908.00;;;;4928337;28;122856;-65
2023/08/23 00:55:29;;;;;;;1.65;1.25;;;19.40;96.60;19.50;100897.00;;;;4929842;28;112821;-64
2023/08/23 00:57:56;;;;;;;2.60;1.52;;;19.40;96.70;19.50;100904.00;;;;4930284;28;93394;-63
2023/08/23 01:00:22;;;;;;;1.83;1.73;;;19.40;96.90;19.40;100900.00;;;;4931690;28;108631;-63
2023/08/23 01:02:48;;;;;;;2.20;1.05;;;19.30;96.90;19.40;100907.00;;;;4932200;28;122807;-63
2023/08/23 01:05:15;;;;;;;1.60;1.50;;;19.30;97.10;19.40;100896.00;;;;4932607;28;122567;-64
2023/08/23 01:08:03;;;;;;;3.03;1.20;;;19.30;97.30;19.30;100904.00;;;;4930057;28;111254;-64
2023/08/23 01:10:49;;;;;;;2.55;1.48;;;19.30;97.40;19.30;100903.00;;;;4930402;28;99160;-64
2023/08/23 01:13:41;;;;;;;1.10;1.00;;;19.30;97.50;19.20;100916.00;;;;4917693;28;93342;-64
2023/08/23 01:16:19;;;;;;;1.88;1.35;;;19.20;97.60;19.20;100909.00;;;;4926645;28;92945;-64
2023/08/23 01:18:45;;;;;;;2.80;1.60;;;19.10;97.80;19.20;100911.00;;;;4947701;28;94065;-65
2023/08/23 01:21:17;;;;;;;2.78;1.77;;;19.10;97.90;19.20;100914.00;;;;4932408;28;108621;-64
2023/08/23 01:23:44;;;;;;;1.85;1.35;;;19.10;98.00;19.10;100900.00;;;;4931505;28;111954;-64
2023/08/23 01:26:10;;;;;;;3.88;2.00;;;19.10;98.20;19.10;100912.00;;;;4930194;28;93170;-64
2023/08/23 01:28:36;;;;;;;1.27;1.15;;;19.00;98.30;19.10;100910.00;;;;4928550;28;93111;-64
2023/08/23 01:31:06;;;;;;;1.92;1.50;;;19.00;98.40;19.00;100900.00;;;;4930899;28;107662;-64
2023/08/23 01:33:40;;;;;;;2.35;1.67;;;18.90;98.60;18.90;100907.00;;;;4929377;28;114122;-64
2023/08/23 01:36:11;;;;;;;2.55;1.67;;;18.90;98.80;18.90;100903.00;;;;4929366;28;103549;-64
2023/08/23 01:38:39;;;;;;;3.25;1.48;;;18.90;99.00;18.80;100914.00;;;;4931871;28;102551;-66
2023/08/23 01:41:06;;;;;;;1.65;1.55;;;18.70;99.10;18.70;100911.00;;;;4929332;28;93367;-63
2023/08/23 01:43:32;;;;;;;4.30;1.52;;;18.70;99.20;18.60;100912.00;;;;4930359;28;122857;-63
2023/08/23 01:45:57;;;;;;;1.80;1.67;;;18.60;99.40;18.60;100917.00;;;;4933040;28;122690;-63
2023/08/23 01:48:23;;;;;;;4.18;1.75;;;18.50;99.60;18.50;100913.00;;;;4927737;28;110217;-63
2023/08/23 01:50:51;;;;;;;1.45;1.35;;;18.40;99.80;18.40;100919.00;;;;4928947;28;110330;-65
2023/08/23 01:53:17;;;;;;;3.60;1.30;;;18.40;99.90;18.40;100913.00;;;;4928189;28;94274;-63
2023/08/23 01:55:42;;;;;;;1.38;1.27;;;18.30;99.90;18.30;100910.00;;;;4931113;28;122698;-63
2023/08/23 01:58:08;;;;;;;1.70;1.50;;;18.30;99.90;18.30;100915.00;;;;4936064;28;110934;-63
2023/08/23 02:00:33;;;;;;;2.15;1.92;;;18.20;99.90;18.30;100925.00;;;;4933355;28;109994;-63
2023/08/23 02:02:59;;;;;;;1.38;1.27;;;18.20;99.90;18.20;100921.00;;;;4932731;28;121536;-65
2023/08/23 02:05:25;;;;;;;1.90;1.63;;;18.20;99.90;18.20;100917.00;;;;4930991;28;92989;-64
2023/08/23 02:07:50;;;;;;;1.63;1.38;;;18.10;99.90;18.20;100918.00;;;;4930226;28;110253;-64
2023/08/23 02:10:16;;;;;;;2.03;1.38;;;18.10;99.90;18.20;100925.00;;;;4929070;28;108298;-64
2023/08/23 02:12:42;;;;;;;2.97;2.03;;;18.10;99.90;18.20;100932.00;;;;4932093;28;121652;-64
2023/08/23 02:15:08;;;;;;;4.22;2.25;;;18.10;99.90;18.20;100914.00;;;;4931775;28;122766;-64
2023/08/23 02:17:33;;;;;;;1.70;1.60;;;18.10;99.90;18.10;100928.00;;;;4932922;28;100781;-64
2023/08/23 02:19:59;;;;;;;2.03;1.75;;;18.10;99.90;18.10;100919.00;;;;4930125;28;102341;-64
2023/08/23 02:22:25;;;;;;;6.90;2.38;;;18.00;99.90;18.10;100912.00;;;;4931698;28;122436;-64
2023/08/23 02:24:50;;;;;;;2.60;2.05;;;18.00;99.90;18.00;100920.00;;;;4928567;28;124438;-64
2023/08/23 02:27:16;;;;;;;2.28;2.03;;;18.00;99.90;18.00;100921.00;;;;4929315;28;110443;-64
2023/08/23 02:29:41;;;;;;;2.65;2.05;;;17.90;99.90;17.90;100919.00;;;;4932049;28;108201;-64
2023/08/23 02:32:07;;;;;;;3.97;2.33;;;17.90;99.90;17.90;100923.00;;;;4932261;28;122856;-64
2023/08/23 02:34:33;;;;;;;2.20;2.00;;;17.80;99.90;17.80;100923.00;;;;4931439;28;123651;-64
2023/08/23 02:36:58;;;;;;;2.25;1.95;;;17.80;99.90;17.70;100927.00;;;;4928907;28;109338;-65
2023/08/23 02:39:24;;;;;;;1.45;1.35;;;17.70;99.90;17.60;100924.00;;;;4930149;28;109245;-64
2023/08/23 02:41:50;;;;;;;4.70;2.70;;;17.60;99.90;17.60;100917.00;;;;4929584;28;122214;-64
2023/08/23 02:44:15;;;;;;;3.17;1.88;;;17.50;99.90;17.50;100909.00;;;;4929519;28;122916;-64
2023/08/23 02:46:41;;;;;;;3.05;2.22;;;17.50;99.90;17.50;100914.00;;;;4931133;28;109607;-63
2023/08/23 02:49:07;;;;;;;2.13;1.55;;;17.40;99.90;17.40;100909.00;;;;4926842;28;110043;-64
2023/08/23 02:51:32;;;;;;;2.78;2.40;;;17.40;99.90;17.40;100909.00;;;;4930638;28;122234;-64
2023/08/23 02:53:58;;;;;;;2.78;2.08;;;17.30;99.90;17.30;100910.00;;;;4928674;28;122089;-64
2023/08/23 02:56:23;;;;;;;3.85;2.13;;;17.30;99.90;17.20;100907.00;;;;4929866;28;111070;-64
2023/08/23 02:58:49;;;;;;;2.58;2.38;;;17.20;99.90;17.10;100901.00;;;;4926694;28;108412;-65
2023/08/23 03:01:17;;;;;;;3.42;2.45;;;17.10;99.90;17.00;100907.00;;;;4929824;28;94001;-64
2023/08/23 03:03:43;;;;;;;2.53;2.28;;;17.00;99.90;16.90;100899.00;;;;4930634;28;110434;-64
2023/08/23 03:06:08;;;;;;;3.60;2.50;;;16.90;99.90;16.90;100904.00;;;;4928513;28;111017;-64
2023/08/23 03:08:34;;;;;;;3.13;2.55;;;16.90;99.90;16.90;100903.00;;;;4932216;28;96261;-64
2023/08/23 03:11:06;;;;;;;2.88;2.67;;;16.80;99.90;16.80;100909.00;;;;4928620;28;121405;-64
2023/08/23 03:13:33;;;;;;;3.70;2.03;;;16.70;99.90;16.70;100904.00;;;;4929253;28;93338;-63
2023/08/23 03:16:00;;;;;;;3.38;1.80;;;16.70;99.90;16.70;100904.00;;;;4933510;28;92189;-64
2023/08/23 03:18:26;;;;;;;3.53;1.70;;;16.60;99.90;16.60;100905.00;;;;4929930;28;93144;-64
2023/08/23 03:20:52;;;;;;;4.20;3.00;;;16.60;99.90;16.60;100892.00;;;;4928969;28;93837;-64
2023/08/23 03:23:19;;;;;;;2.75;2.45;;;16.60;99.90;16.50;100898.00;;;;4927601;28;123230;-64
2023/08/23 03:25:49;;;;;;;2.72;1.92;;;16.50;99.90;16.50;100901.00;;;;4931155;28;92935;-64
2023/08/23 03:28:15;;;;;;;3.83;2.55;;;16.50;99.90;16.40;100892.00;;;;4929552;28;92798;-64
2023/08/23 03:30:41;;;;;;;3.42;2.60;;;16.40;99.90;16.40;100891.00;;;;4931094;28;104521;-65
2023/08/23 03:33:07;;;;;;;2.55;2.20;;;16.40;99.90;16.40;100906.00;;;;4926931;28;111955;-64
2023/08/23 03:35:33;;;;;;;2.40;1.73;;;16.30;99.90;16.30;100909.00;;;;4927391;28;92839;-63
2023/08/23 03:37:59;;;;;;;2.78;1.55;;;16.30;99.90;16.30;100903.00;;;;4931102;28;92773;-65
2023/08/23 03:40:25;;;;;;;2.97;2.78;;;16.30;99.90;16.30;100903.00;;;;4931254;28;92190;-64
2023/08/23 03:42:51;;;;;;;3.83;2.13;;;16.30;99.90;16.30;100899.00;;;;4932674;28;113378;-64
2023/08/23 03:45:20;;;;;;;2.45;1.90;;;16.20;99.90;16.20;100914.00;;;;4928914;28;110522;-64
2023/08/23 03:47:46;;;;;;;1.85;1.75;;;16.20;99.90;16.20;100906.00;;;;4932594;28;94043;-64
2023/08/23 03:50:12;;;;;;;5.85;2.15;;;16.20;99.90;16.20;100900.00;;;;4930301;28;123043;-65
2023/08/23 03:52:38;;;;;;;4.32;2.55;;;16.20;99.90;16.20;100900.00;;;;4929883;28;122183;-64
2023/08/23 03:55:04;;;;;;;1.90;1.38;;;16.10;99.90;16.20;100901.00;;;;4929388;28;109862;-64
2023/08/23 03:57:30;;;;;;;2.50;2.30;;;16.10;99.90;16.20;100902.00;;;;4928118;28;100615;-65
2023/08/23 03:59:55;;;;;;;2.95;1.88;;;16.10;99.90;16.20;100899.00;;;;4931266;28;94013;-64
2023/08/23 04:02:21;;;;;;;2.13;1.70;;;16.10;99.90;16.20;100906.00;;;;4929482;28;93450;-63
2023/08/23 04:04:47;;;;;;;2.15;1.83;;;16.10;99.90;16.20;100907.00;;;;4929853;28;111113;-64
2023/08/23 04:07:15;;;;;;;5.70;2.03;;;16.10;99.90;16.10;100910.00;;;;4928023;28;107247;-64
2023/08/23 04:09:41;;;;;;;2.97;2.40;;;16.10;99.90;16.10;100902.00;;;;4931074;28;116578;-64
2023/08/23 04:12:08;;;;;;;2.45;2.13;;;16.10;99.90;16.10;100908.00;;;;4931884;28;94181;-64
2023/08/23 04:14:35;;;;;;;2.13;1.92;;;16.10;99.90;16.10;100914.00;;;;4931811;28;93098;-64
2023/08/23 04:17:02;;;;;;;3.63;2.80;;;16.10;99.90;16.10;100918.00;;;;4927625;28;92851;-64
2023/08/23 04:19:27;;;;;;;2.38;1.95;;;16.00;99.90;16.10;100911.00;;;;4920318;28;93005;-64
2023/08/23 04:21:53;;;;;;;2.15;1.98;;;16.00;99.90;16.10;100914.00;;;;4939595;28;121525;-64
2023/08/23 04:24:20;;;;;;;3.08;2.28;;;16.00;99.90;16.10;100916.00;;;;4927926;28;110181;-64
2023/08/23 04:26:46;;;;;;;2.70;2.05;;;16.00;99.90;16.00;100905.00;;;;4930785;28;93125;-64
2023/08/23 04:29:12;;;;;;;2.33;2.13;;;16.00;99.90;16.00;100912.00;;;;4932242;28;122058;-64
2023/08/23 04:31:37;;;;;;;2.63;2.42;;;16.00;99.90;16.00;100914.00;;;;4928368;28;120131;-64
2023/08/23 04:34:04;;;;;;;2.13;1.92;;;16.00;99.90;16.00;100916.00;;;;4928550;28;109876;-64
2023/08/23 04:36:31;;;;;;;2.85;2.65;;;16.00;99.90;16.00;100919.00;;;;4925892;28;94524;-64
2023/08/23 04:38:57;;;;;;;2.15;2.00;;;16.00;99.90;16.00;100913.00;;;;4924038;28;94208;-64
2023/08/23 04:41:22;;;;;;;3.63;3.03;;;16.00;99.90;16.10;100917.00;;;;4926274;28;94900;-64
2023/08/23 04:43:48;;;;;;;3.53;2.28;;;16.00;99.90;16.00;100913.00;;;;4923097;28;110187;-65
2023/08/23 04:46:14;;;;;;;3.75;2.60;;;16.00;99.90;16.00;100915.00;;;;4922391;28;108584;-64
2023/08/23 04:48:39;;;;;;;3.40;2.90;;;16.00;99.90;16.00;100913.00;;;;4926888;28;93395;-64
2023/08/23 04:51:09;;;;;;;4.03;2.65;;;16.00;99.90;16.00;100918.00;;;;4927713;28;122289;-63
2023/08/23 04:53:35;;;;;;;3.63;3.05;;;16.00;99.90;16.10;100919.00;;;;4929104;28;92637;-64
2023/08/23 04:56:02;;;;;;;4.47;2.22;;;16.00;99.90;16.10;100914.00;;;;4909857;28;94536;-64
2023/08/23 04:58:31;;;;;;;3.42;2.70;;;16.00;99.90;16.20;100912.00;;;;4928543;28;93064;-64
2023/08/23 05:01:04;;;;;;;3.67;3.38;;;16.10;99.90;16.30;100916.00;;;;4927330;28;94061;-64
2023/08/23 05:03:31;;;;;;;3.40;2.95;;;16.20;99.90;16.40;100921.00;;;;4927682;28;93235;-63
2023/08/23 05:05:58;;;;;;;3.95;2.67;;;16.30;99.90;16.60;100921.00;;;;4929485;28;93031;-64
2023/08/23 05:08:24;;;;;;;3.13;2.60;;;16.40;99.90;16.70;100917.00;;;;4929827;28;93790;-64
2023/08/23 05:10:54;;;;;;;2.83;2.42;;;16.60;99.90;16.90;100908.00;;;;4920986;28;122199;-64
2023/08/23 05:13:21;;;;;;;3.95;2.50;;;16.70;99.90;17.10;100913.00;;;;4929840;28;94594;-64
2023/08/23 05:15:57;;;;;;;3.85;3.22;;;16.90;99.90;17.20;100924.00;;;;4932124;28;93037;-65
2023/08/23 05:18:23;;;;;;;4.47;2.28;;;17.10;99.90;17.40;100921.00;;;;4929916;28;93699;-66
2023/08/23 05:20:59;;;;;;;5.72;3.45;;;17.20;99.90;17.60;100924.00;;;;4930361;28;92995;-66
2023/08/23 05:23:25;;;;;;;3.38;2.97;;;17.40;99.90;17.80;100933.00;;;;4927082;28;93151;-64
2023/08/23 05:25:52;;;;;;;7.25;2.42;;;17.60;99.90;17.90;100927.00;;;;4928347;28;108081;-65
2023/08/23 05:28:19;;;;;;;3.47;3.08;;;17.70;99.90;18.10;100930.00;;;;4927846;28;93022;-66
2023/08/23 05:30:45;;;;;;;4.90;3.08;;;17.90;99.90;18.30;100926.00;;;;4935663;28;93724;-65
2023/08/23 05:33:12;;;;;;;3.15;2.95;;;18.10;99.90;18.50;100938.00;;;;4933357;28;93115;-66
2023/08/23 05:35:40;;;;;;;3.45;2.60;;;18.30;99.90;18.70;100932.00;;;;4933791;28;93089;-65
2023/08/23 05:38:06;;;;;;;3.85;2.42;;;18.50;99.90;18.90;100929.00;;;;4932342;28;94203;-65
2023/08/23 05:40:32;;;;;;;3.08;2.78;;;18.70;99.90;19.10;100932.00;;;;4931802;28;109016;-65
2023/08/23 05:43:00;;;;;;;2.22;2.03;;;18.80;99.90;19.30;100933.00;;;;4931109;28;109815;-66
2023/08/23 05:45:29;;;;;;;4.13;3.20;;;19.10;99.90;19.60;100935.00;;;;4918822;28;108814;-64
2023/08/23 05:47:55;;;;;;;3.33;3.00;;;19.30;99.90;19.90;100931.00;;;;4930786;28;94275;-65
2023/08/23 05:50:22;;;;;;;4.18;2.72;;;19.60;99.90;20.30;100937.00;;;;4930858;28;94100;-65
2023/08/23 05:52:47;;;;;;;2.38;2.17;;;20.00;99.90;20.60;100930.00;;;;4932573;28;92990;-65
2023/08/23 05:55:13;;;;;;;3.35;2.63;;;20.30;99.90;20.90;100943.00;;;;4931958;28;92767;-66
2023/08/23 05:57:39;;;;;;;2.47;2.25;;;20.50;99.90;21.20;100940.00;;;;4930198;28;93794;-65
2023/08/23 06:00:06;;;;;;;3.25;2.25;;;20.90;99.90;21.50;100945.00;;;;4930671;28;121336;-63
2023/08/23 06:02:32;;;;;;;4.13;2.88;;;21.20;99.90;21.70;100945.00;;;;4929064;28;93197;-63
2023/08/23 06:04:58;;;;;;;2.42;2.22;;;21.50;99.90;21.90;100944.00;;;;4929139;28;92839;-63
2023/08/23 06:07:24;;;;;;;3.63;1.98;;;21.70;99.90;22.10;100944.00;;;;4928516;28;106780;-64
2023/08/23 06:09:50;;;;;;;6.60;2.70;;;21.80;99.90;22.20;100932.00;;;;4930954;28;120397;-63
2023/08/23 06:12:16;;;;;;;2.78;2.42;;;22.00;99.90;22.10;100936.00;;;;4929683;28;109988;-65
2023/08/23 06:14:41;;;;;;;3.92;2.30;;;22.00;99.90;22.10;100931.00;;;;4931052;28;93913;-63
2023/08/23 06:17:07;;;;;;;3.25;2.50;;;21.90;99.90;22.00;100927.00;;;;4933413;28;102987;-64
2023/08/23 06:19:33;;;;;;;2.33;2.13;;;21.90;99.90;22.00;100942.00;;;;4932766;28;93111;-64
2023/08/23 06:21:59;;;;;;;2.97;2.03;;;21.80;99.90;22.00;100932.00;;;;4930623;28;96715;-65
2023/08/23 06:24:24;;;;;;;2.65;2.20;;;21.80;99.90;22.20;100934.00;;;;4932224;28;92959;-65
2023/08/23 06:26:50;;;;;;;3.28;2.97;;;21.90;99.90;22.30;100930.00;;;;4929357;28;122069;-64
2023/08/23 06:29:17;;;;;;;3.17;2.60;;;22.10;99.90;22.40;100926.00;;;;4931201;28;93201;-65
2023/08/23 06:31:43;;;;;;;2.75;2.08;;;22.20;99.90;22.60;100935.00;;;;4931362;28;92203;-65
2023/08/23 06:34:08;;;;;;;2.10;1.90;;;22.40;99.90;22.80;100933.00;;;;4932365;28;92889;-65
2023/08/23 06:36:34;;;;;;;2.38;1.75;;;22.60;99.90;23.10;100931.00;;;;4928808;28;104868;-64
2023/08/23 06:39:00;;;;;;;2.60;1.90;;;22.70;99.90;23.30;100924.00;;;;4930588;28;111063;-65
2023/08/23 06:41:25;;;;;;;3.75;2.05;;;23.10;99.90;23.60;100928.00;;;;4930428;28;108432;-64
2023/08/23 06:43:59;;;;;;;2.35;2.13;;;23.30;99.90;23.90;100938.00;;;;4930549;28;108004;-64
2023/08/23 06:46:25;;;;;;;4.80;2.33;;;23.60;99.50;24.20;100936.00;;;;4930158;28;101331;-65
2023/08/23 06:48:50;;;;;;;2.97;2.15;;;23.90;99.00;24.40;100934.00;;;;4931225;28;121738;-65
2023/08/23 06:51:16;;;;;;;3.45;1.90;;;24.10;98.70;24.70;100933.00;;;;4929886;28;109952;-65
2023/08/23 06:53:42;;;;;;;2.13;1.73;;;24.30;98.00;25.00;100937.00;;;;4928831;28;108486;-65
2023/08/23 06:56:08;;;;;;;1.95;1.83;;;24.60;97.70;25.30;100932.00;;;;4928696;28;122222;-65
2023/08/23 06:58:35;;;;;;;4.20;1.98;;;24.90;97.20;25.50;100938.00;;;;4928732;28;93243;-66
2023/08/23 07:01:01;;;;;;;2.05;1.33;;;25.20;96.30;25.70;100938.00;;;;4928034;28;94700;-65
2023/08/23 07:03:26;;;;;;;2.13;1.92;;;25.40;95.80;26.00;100946.00;;;;4930835;28;93929;-65
2023/08/23 07:05:52;;;;;;;3.70;2.33;;;25.70;95.30;26.10;100950.00;;;;4928757;28;124148;-65
2023/08/23 07:08:18;;;;;;;3.83;1.50;;;25.80;94.20;26.30;100947.00;;;;4927799;28;122467;-65
2023/08/23 07:10:44;;;;;;;2.83;1.77;;;26.00;93.90;26.50;100949.00;;;;4928057;28;92838;-65
2023/08/23 07:13:09;;;;;;;2.95;2.10;;;26.30;93.50;26.70;100941.00;;;;4928018;28;107904;-65
2023/08/23 07:15:35;;;;;;;2.85;2.15;;;26.40;92.90;27.00;100944.00;;;;4929868;28;121954;-65
2023/08/23 07:18:01;;;;;;;3.65;2.08;;;26.70;92.10;27.10;100950.00;;;;4934699;28;92918;-65
2023/08/23 07:20:27;;;;;;;2.05;1.48;;;26.90;91.00;27.30;100955.00;;;;4930987;28;102543;-66
2023/08/23 07:22:53;;;;;;;1.95;1.38;;;27.10;90.10;27.50;100961.00;;;;4930615;28;109013;-65
2023/08/23 07:25:18;;;;;;;3.67;2.28;;;27.20;89.80;27.80;100964.00;;;;4929937;28;93942;-65
2023/08/23 07:27:44;;;;;;;7.82;1.58;;;27.50;89.30;28.00;100958.00;;;;4927547;28;122808;-65
2023/08/23 07:30:11;;;;;;;1.83;1.65;;;27.70;88.30;28.20;100963.00;;;;4928438;28;110470;-65
2023/08/23 07:32:37;;;;;;;3.08;2.03;;;27.90;85.90;28.30;100971.00;;;;4929642;28;93005;-65
2023/08/23 07:35:04;;;;;;;2.72;1.70;;;28.00;84.70;28.30;100967.00;;;;4929030;28;93468;-65
2023/08/23 07:37:29;;;;;;;2.63;1.67;;;28.10;83.50;28.40;100975.00;;;;4926917;28;93942;-65
2023/08/23 07:39:55;;;;;;;1.27;1.17;;;28.20;84.60;28.70;100978.00;;;;4927090;28;92773;-66
2023/08/23 07:42:21;;;;;;;6.53;1.13;;;28.40;83.60;29.00;100977.00;;;;4930087;28;92859;-66
2023/08/23 07:44:47;;;;;;;4.07;1.42;;;28.70;82.90;29.30;100969.00;;;;4927551;28;103153;-65
2023/08/23 07:47:12;;;;;;;1.20;1.10;;;28.90;81.50;29.60;100982.00;;;;4927162;28;122075;-65
2023/08/23 07:49:38;;;;;;;4.20;1.63;;;29.40;80.20;29.90;100977.00;;;;4928225;28;110073;-65
2023/08/23 07:52:04;;;;;;;1.77;1.08;;;29.60;79.00;30.20;100973.00;;;;4926888;28;94002;-65
2023/08/23 07:54:30;;;;;;;2.55;1.33;;;29.90;76.20;30.30;100978.00;;;;4929604;28;93899;-65
2023/08/23 07:56:56;;;;;;;2.40;1.30;;;30.10;73.10;30.40;100981.00;;;;4927449;28;122832;-65
2023/08/23 07:59:21;;;;;;;2.45;1.15;;;30.20;71.70;30.50;100985.00;;;;4930850;28;109545;-65
2023/08/23 08:01:47;;;;;;;0.80;0.80;;;30.20;70.20;30.60;100984.00;;;;4930850;28;92716;-65
2023/08/23 08:04:13;;;;;;;0.80;0.80;;;30.40;69.00;30.80;100985.00;;;;4927190;28;93642;-66
2023/08/23 08:06:39;;;;;;;2.65;0.68;;;30.60;67.40;30.90;100969.00;;;;4927816;28;122044;-67
2023/08/23 08:09:05;;;;;;;1.15;1.02;;;30.70;65.60;31.00;100979.00;;;;4926926;28;92362;-67
2023/08/23 08:11:31;;;;;;;0.85;0.82;;;30.80;64.00;31.00;100981.00;;;;4928929;28;99846;-67
2023/08/23 08:13:57;;;;;;;1.85;1.00;;;30.80;62.60;31.20;100979.00;;;;4928087;28;93251;-67
2023/08/23 08:16:23;;;;;;;2.35;1.00;;;30.90;62.00;31.30;100972.00;;;;4928781;28;94133;-67
2023/08/23 08:18:48;;;;;;;1.40;1.00;;;31.10;61.10;31.50;100974.00;;;;4931956;28;110079;-67
2023/08/23 08:21:14;;;;;;;1.10;0.70;;;31.30;60.80;31.70;100971.00;;;;4925580;28;97563;-68
2023/08/23 08:23:40;;;;;;;1.13;0.63;;;31.30;59.80;31.80;100976.00;;;;4929954;28;123164;-67
2023/08/23 08:26:06;;;;;;;1.25;1.00;;;31.50;59.50;32.00;100996.00;;;;4933023;28;93856;-66
2023/08/23 08:28:32;;;;;;;1.35;0.93;;;31.70;59.10;32.20;100991.00;;;;4934118;28;92828;-68
2023/08/23 08:30:58;;;;;;;2.05;1.10;;;31.90;58.00;32.40;100991.00;;;;4931378;28;92792;-68
2023/08/23 08:33:24;;;;;;;1.10;0.98;;;32.10;57.30;32.60;100997.00;;;;4931200;28;122482;-68
2023/08/23 08:35:56;;;;;;;3.75;1.13;;;32.20;56.70;32.80;100996.00;;;;4931538;28;122183;-69
2023/08/23 08:38:22;;;;;;;3.20;0.82;;;32.50;55.50;32.90;101002.00;;;;4931112;28;93025;-67
2023/08/23 08:40:48;;;;;;;1.23;1.13;;;32.60;54.60;33.00;100999.00;;;;4931519;28;93919;-68
2023/08/23 08:43:13;;;;;;;1.85;0.90;;;32.70;53.90;33.10;100998.00;;;;4932197;28;105987;-67
2023/08/23 08:45:39;;;;;;;2.05;1.10;;;32.80;53.30;33.20;101003.00;;;;4930813;28;123365;-68
2023/08/23 08:48:05;;;;;;;1.65;0.95;;;32.90;52.60;33.40;101005.00;;;;4929925;28;93315;-68
2023/08/23 08:50:34;;;;;;;0.60;0.60;;;33.00;52.00;33.50;101002.00;;;;4932115;28;92906;-68
2023/08/23 08:53:05;;;;;;;0.68;0.63;;;33.10;51.60;33.70;101003.00;;;;4933436;28;93311;-68
2023/08/23 08:55:31;;;;;;;1.08;0.52;;;33.30;50.90;33.80;101003.00;;;;4931759;28;92928;-68
2023/08/23 08:57:58;;;;;;;2.75;1.15;;;33.50;50.20;34.00;101005.00;;;;4930478;28;107838;-68
2023/08/23 09:00:25;;;;;;;0.70;0.52;;;33.60;49.40;34.20;101004.00;;;;4911608;28;108137;-68
2023/08/23 09:02:55;;;;;;;1.20;0.65;;;33.80;48.80;34.30;101004.00;;;;4934238;28;93917;-68
2023/08/23 09:05:21;;;;;;;0.75;0.75;;;34.00;48.10;34.40;100996.00;;;;4933331;28;93938;-68
2023/08/23 09:07:49;;;;;;;1.10;0.90;;;34.00;47.50;34.50;100999.00;;;;4929992;28;109531;-68
2023/08/23 09:10:14;;;;;;;0.50;0.45;;;34.10;47.00;34.70;100993.00;;;;4916051;28;92995;-68
2023/08/23 09:12:40;;;;;;;2.30;0.63;;;34.30;46.70;34.80;101004.00;;;;4929051;28;122527;-68
2023/08/23 09:15:07;;;;;;;1.17;0.60;;;34.40;45.90;34.90;101010.00;;;;4931061;28;93288;-68
2023/08/23 09:17:36;;;;;;;1.42;0.90;;;34.40;45.60;35.00;101008.00;;;;4932655;28;92935;-68
2023/08/23 09:20:12;;;;;;;0.73;0.60;;;34.60;45.40;34.90;101003.00;;;;4931322;28;108080;-68
2023/08/23 09:22:52;;;;;;;1.08;0.52;;;34.60;45.00;34.90;101006.00;;;;4931996;28;114263;-68
2023/08/23 09:25:18;;;;;;;0.70;0.68;;;34.50;44.90;35.00;101006.00;;;;4932103;28;93848;-68
2023/08/23 09:27:43;;;;;;;3.22;0.88;;;34.60;45.40;35.10;101008.00;;;;4932963;28;110959;-68
2023/08/23 09:30:11;;;;;;;0.70;0.63;;;34.60;45.40;35.20;101010.00;;;;4929242;28;109218;-68
2023/08/23 09:32:36;;;;;;;2.33;0.88;;;34.80;45.40;35.20;101016.00;;;;4928154;28;115019;-68
2023/08/23 09:35:13;;;;;;;1.00;0.30;;;34.80;45.10;34.90;101018.00;;;;4928862;28;122344;-68
2023/08/23 09:37:44;;;;;;;1.08;0.70;;;34.60;44.90;34.60;101019.00;;;;4931403;28;93178;-68
2023/08/23 09:40:26;;;;;;;0.85;0.77;;;34.40;45.10;34.30;101011.00;;;;4931419;28;93170;-67
2023/08/23 09:42:53;;;;;;;4.95;0.82;;;34.10;45.10;34.00;101012.00;;;;4931924;28;93861;-67
2023/08/23 09:45:21;;;;;;;0.73;0.73;;;33.80;45.50;33.70;101009.00;;;;4930540;28;93955;-67
2023/08/23 09:47:55;;;;;;;0.55;0.55;;;33.60;45.90;33.40;101015.00;;;;4930683;28;92185;-67
2023/08/23 09:50:23;;;;;;;1.17;0.80;;;33.20;46.30;33.10;101012.00;;;;4928862;28;100455;-67
2023/08/23 09:53:18;;;;;;;0.60;0.60;;;32.90;46.80;32.80;101021.00;;;;4932209;28;93262;-67
2023/08/23 09:55:45;;;;;;;1.58;0.95;;;32.70;47.20;32.70;101012.00;;;;4924615;28;96154;-67
2023/08/23 09:58:20;;;;;;;1.00;0.88;;;32.50;47.10;32.60;101016.00;;;;4930300;28;112413;-67
2023/08/23 10:00:49;;;;;;;1.00;0.70;;;32.30;47.30;32.70;101000.00;;;;4929144;28;106939;-68
2023/08/23 10:03:15;;;;;;;1.10;1.00;;;32.30;47.70;33.00;101006.00;;;;4930926;28;94460;-69
2023/08/23 10:05:43;;;;;;;3.42;0.60;;;32.40;47.60;33.20;101010.00;;;;4931483;28;121574;-69
2023/08/23 10:08:09;;;;;;;2.03;1.30;;;32.60;47.50;33.50;101008.00;;;;4931005;28;93130;-67
2023/08/23 10:10:37;;;;;;;1.17;0.57;;;32.80;47.00;33.80;101010.00;;;;4930483;28;107602;-68
2023/08/23 10:13:05;;;;;;;0.82;0.82;;;33.00;46.90;34.10;101006.00;;;;4927334;28;107509;-67
2023/08/23 10:15:37;;;;;;;1.23;0.85;;;33.30;46.60;34.40;101005.00;;;;4930088;28;121327;-69
2023/08/23 10:18:10;;;;;;;0.82;0.82;;;33.60;46.10;34.70;101002.00;;;;4927915;28;93013;-69
2023/08/23 10:20:37;;;;;;;1.67;0.63;;;33.90;45.80;35.00;101007.00;;;;4944039;28;96926;-68
2023/08/23 10:23:16;;;;;;;0.82;0.60;;;34.20;45.60;35.20;101002.00;;;;4926656;28;94295;-68
2023/08/23 10:25:43;;;;;;;1.30;1.13;;;34.40;44.40;35.50;100999.00;;;;4928729;28;113125;-68
2023/08/23 10:28:12;;;;;;;0.90;0.85;;;34.60;44.60;35.90;101004.00;;;;4932068;28;93474;-67
2023/08/23 10:30:45;;;;;;;2.05;0.77;;;34.90;44.40;36.30;101006.00;;;;4932791;28;93088;-67
2023/08/23 10:33:16;;;;;;;2.22;1.08;;;35.30;43.80;36.30;100994.00;;;;4929093;28;93635;-68
2023/08/23 10:35:44;;;;;;;0.85;0.80;;;35.50;42.60;36.10;100988.00;;;;4931645;28;92924;-68
2023/08/23 10:38:11;;;;;;;3.70;1.15;;;35.40;42.50;35.90;100992.00;;;;4934337;28;92361;-68
2023/08/23 10:40:39;;;;;;;4.72;0.95;;;35.30;42.80;35.40;100985.00;;;;4932223;28;92987;-69
2023/08/23 10:43:17;;;;;;;0.77;0.60;;;35.00;42.60;35.10;100987.00;;;;4931501;28;98007;-68